Time;durP1;ratioP1;P1;durP2;ratioP2;P2;SDS_P1;SDS_P2;PMS_P1;PMS_P2;Temp;Humidity;BMP_temperature;BMP_pressure;BME280_temperature;BME280_humidity;BME280_pressure;Samples;Min_cycle;Max_cycle;Signal;HPM_P1;HPM_P2
2021/05/09 00:01:11;;;;;;;7.42;2.10;;;;;;;5.48;100.00;100920.40;1606317;88;21095;-82
2021/05/09 00:03:37;;;;;;;4.80;2.00;;;;;;;5.40;100.00;100918.80;1586163;89;21119;-82
2021/05/09 00:06:04;;;;;;;3.77;2.15;;;;;;;5.43;100.00;100924.23;1608382;88;22060;-82
2021/05/09 00:08:30;;;;;;;5.37;2.45;;;;;;;5.42;100.00;100919.94;1608383;88;21176;-81
2021/05/09 00:10:56;;;;;;;3.42;1.98;;;;;;;5.30;100.00;100910.98;1608374;88;20974;-81
2021/05/09 00:13:23;;;;;;;3.87;1.90;;;;;;;5.36;100.00;100910.12;1603751;88;20990;-81
2021/05/09 00:15:50;;;;;;;4.47;2.10;;;;;;;5.37;100.00;100914.42;1601600;88;21205;-81
2021/05/09 00:18:16;;;;;;;4.60;2.15;;;;;;;5.30;100.00;100921.16;1601488;88;22015;-81
2021/05/09 00:20:42;;;;;;;6.92;2.27;;;;;;;5.29;100.00;100919.50;1601511;88;21221;-81
2021/05/09 00:23:08;;;;;;;4.33;2.20;;;;;;;5.23;100.00;100910.52;1601736;88;21220;-82
2021/05/09 00:25:34;;;;;;;5.72;2.45;;;;;;;5.22;100.00;100903.52;1601657;88;21042;-82
2021/05/09 00:28:00;;;;;;;5.85;2.50;;;;;;;5.20;100.00;100897.56;1601717;88;21173;-81
2021/05/09 00:30:26;;;;;;;5.92;2.37;;;;;;;5.14;100.00;100889.08;1601625;88;21932;-81
2021/05/09 00:32:52;;;;;;;4.60;2.27;;;;;;;5.12;100.00;100889.03;1601520;88;20999;-82
2021/05/09 00:35:17;;;;;;;6.35;2.40;;;;;;;5.05;100.00;100904.27;1601372;88;21014;-82
2021/05/09 00:37:43;;;;;;;8.45;2.40;;;;;;;5.04;100.00;100905.30;1601727;88;21157;-82
2021/05/09 00:40:10;;;;;;;6.25;2.30;;;;;;;4.94;100.00;100911.09;1601608;88;20979;-82
2021/05/09 00:42:37;;;;;;;4.80;2.30;;;;;;;4.95;100.00;100922.10;1601698;88;21225;-81
2021/05/09 00:45:06;;;;;;;4.53;2.50;;;;;;;4.97;100.00;100926.20;1601403;88;21217;-81
2021/05/09 00:47:32;;;;;;;4.83;2.40;;;;;;;4.86;100.00;100926.88;1607928;87;21199;-81
2021/05/09 00:49:58;;;;;;;6.45;2.52;;;;;;;4.90;100.00;100924.06;1635258;87;21234;-82
2021/05/09 00:52:26;;;;;;;8.55;2.60;;;;;;;4.87;100.00;100931.17;1636952;86;21090;-82
2021/05/09 00:55:01;;;;;;;7.35;2.20;;;;;;;4.81;100.00;100934.70;1637222;87;21228;-82
2021/05/09 00:57:26;;;;;;;8.28;2.70;;;;;;;4.85;100.00;100924.40;1637146;87;21254;-81
2021/05/09 00:59:53;;;;;;;4.12;2.42;;;;;;;4.78;100.00;100923.11;1637182;87;21821;-81
2021/05/09 01:02:19;;;;;;;5.90;2.67;;;;;;;4.75;100.00;100927.02;1638904;86;21131;-82
2021/05/09 01:04:46;;;;;;;4.83;2.60;;;;;;;4.77;100.00;100938.84;1637279;87;21217;-81
2021/05/09 01:07:14;;;;;;;7.58;2.40;;;;;;;4.72;100.00;100940.80;1617198;87;21083;-82
2021/05/09 01:09:41;;;;;;;4.97;2.55;;;;;;;4.73;100.00;100948.28;1637230;86;21190;-81
2021/05/09 01:12:13;;;;;;;4.80;2.15;;;;;;;4.70;100.00;100948.19;1638028;86;21218;-81
2021/05/09 01:14:40;;;;;;;4.37;2.72;;;;;;;4.69;100.00;100946.56;1613009;88;21243;-82
2021/05/09 01:17:07;;;;;;;6.92;2.92;;;;;;;4.71;100.00;100945.03;1612021;87;21451;-82
2021/05/09 01:19:34;;;;;;;3.72;2.20;;;;;;;4.69;100.00;100949.23;1608341;88;21950;-82
2021/05/09 01:22:00;;;;;;;5.53;2.30;;;;;;;4.67;100.00;100957.14;1608236;88;21682;-82
2021/05/09 01:24:26;;;;;;;5.28;2.45;;;;;;;4.67;100.00;100962.48;1608394;88;21049;-82
2021/05/09 01:26:53;;;;;;;5.75;2.50;;;;;;;4.63;100.00;100966.09;1608225;88;21191;-83
2021/05/09 01:29:19;;;;;;;6.67;2.45;;;;;;;4.64;100.00;100969.58;1608427;88;21192;-82
2021/05/09 01:31:50;;;;;;;5.72;2.37;;;;;;;4.61;100.00;100974.00;1608463;88;21205;-81
2021/05/09 01:34:16;;;;;;;4.92;2.52;;;;;;;4.58;100.00;100986.44;1608235;88;21260;-82
2021/05/09 01:36:42;;;;;;;4.75;2.33;;;;;;;4.55;100.00;100985.81;1608338;88;21041;-82
2021/05/09 01:39:08;;;;;;;6.72;2.87;;;;;;;4.56;100.00;100983.99;1608260;88;21688;-81
2021/05/09 01:41:34;;;;;;;5.78;2.42;;;;;;;4.50;100.00;100983.47;1608239;88;21312;-82
2021/05/09 01:44:00;;;;;;;5.30;2.50;;;;;;;4.53;100.00;100991.09;1608346;88;21223;-82
2021/05/09 01:46:26;;;;;;;6.53;2.55;;;;;;;4.51;100.00;100992.62;1608151;88;21255;-81
2021/05/09 01:48:52;;;;;;;6.30;2.80;;;;;;;4.52;100.00;101000.91;1608400;88;20955;-82
2021/05/09 01:51:19;;;;;;;3.45;2.25;;;;;;;4.47;100.00;101003.91;1608308;88;21136;-82
2021/05/09 01:53:47;;;;;;;4.85;2.80;;;;;;;4.48;100.00;101006.90;1608267;88;21240;-81
2021/05/09 01:56:14;;;;;;;5.65;2.37;;;;;;;4.40;100.00;101013.27;1608288;88;21285;-82
2021/05/09 01:58:41;;;;;;;7.45;2.72;;;;;;;4.43;100.00;101008.03;1604694;88;21140;-82
2021/05/09 02:01:07;;;;;;;4.97;2.62;;;;;;;4.44;100.00;100998.98;1608231;88;21117;-82
2021/05/09 02:03:34;;;;;;;4.10;2.37;;;;;;;4.44;100.00;101002.98;1587095;89;21629;-82
2021/05/09 02:05:59;;;;;;;8.10;2.70;;;;;;;4.40;100.00;101006.59;1608384;88;21268;-81
2021/05/09 02:08:25;;;;;;;5.45;2.50;;;;;;;4.39;100.00;101008.97;1608276;88;21289;-82
2021/05/09 02:10:51;;;;;;;6.83;2.90;;;;;;;4.37;100.00;101012.35;1621624;86;20977;-82
2021/05/09 02:13:17;;;;;;;4.55;2.45;;;;;;;4.46;100.00;101017.77;1650175;86;21065;-82
2021/05/09 02:15:43;;;;;;;6.00;2.27;;;;;;;4.46;100.00;101024.95;1647390;87;21677;-81
2021/05/09 02:18:09;;;;;;;5.58;2.60;;;;;;;4.43;100.00;101029.38;1647557;86;20992;-82
2021/05/09 02:20:35;;;;;;;4.45;2.60;;;;;;;4.46;100.00;101022.29;1647348;86;21930;-81
2021/05/09 02:23:01;;;;;;;3.80;2.02;;;;;;;4.43;100.00;101021.38;1647226;87;21186;-82
2021/05/09 02:25:27;;;;;;;4.03;2.27;;;;;;;4.51;100.00;101019.82;1647391;87;21009;-82
2021/05/09 02:27:54;;;;;;;6.30;2.20;;;;;;;4.52;100.00;101019.59;1647556;87;21486;-82
2021/05/09 02:30:21;;;;;;;4.70;2.50;;;;;;;4.52;100.00;101027.60;1647523;87;21096;-82
2021/05/09 02:32:47;;;;;;;3.60;2.27;;;;;;;4.64;100.00;101025.11;1647425;86;21173;-82
2021/05/09 02:35:13;;;;;;;5.78;2.45;;;;;;;4.65;100.00;101029.95;1647450;87;20981;-82
2021/05/09 02:37:39;;;;;;;4.35;2.20;;;;;;;4.65;100.00;101027.29;1647282;86;21104;-82
2021/05/09 02:40:06;;;;;;;4.67;2.02;;;;;;;4.58;100.00;101016.61;1647478;87;21203;-82
2021/05/09 02:42:33;;;;;;;3.70;2.33;;;;;;;4.71;100.00;101029.94;1647489;87;21524;-82
2021/05/09 02:44:59;;;;;;;5.55;2.60;;;;;;;4.85;100.00;101032.02;1647402;87;21264;-82
2021/05/09 02:47:31;;;;;;;4.12;2.10;;;;;;;4.92;100.00;101042.70;1647400;87;20970;-82
2021/05/09 02:50:00;;;;;;;6.17;1.98;;;;;;;4.99;100.00;101037.62;1647423;87;21084;-82
2021/05/09 02:52:27;;;;;;;7.50;2.67;;;;;;;5.11;100.00;101044.97;1647532;87;21220;-82
2021/05/09 02:54:53;;;;;;;5.53;1.98;;;;;;;5.21;100.00;101050.70;1647480;87;21139;-82
2021/05/09 02:57:21;;;;;;;2.72;1.75;;;;;;;5.19;100.00;101056.76;1647472;87;21267;-82
2021/05/09 02:59:47;;;;;;;6.10;2.22;;;;;;;5.27;100.00;101059.19;1647159;87;21108;-82
2021/05/09 03:02:13;;;;;;;5.97;2.12;;;;;;;5.22;100.00;101063.83;1647466;86;21668;-82
2021/05/09 03:04:39;;;;;;;3.30;2.00;;;;;;;5.22;100.00;101066.50;1647459;87;21668;-82
2021/05/09 03:07:06;;;;;;;5.40;2.05;;;;;;;5.26;100.00;101064.73;1647475;87;21050;-81
2021/05/09 03:09:32;;;;;;;3.27;1.80;;;;;;;5.40;100.00;101066.31;1647381;87;21133;-82
2021/05/09 03:11:59;;;;;;;5.85;1.95;;;;;;;5.46;100.00;101063.59;1647464;87;21675;-82
2021/05/09 03:14:25;;;;;;;2.92;1.77;;;;;;;5.48;100.00;101062.06;1644385;86;21073;-82
2021/05/09 03:16:53;;;;;;;4.70;2.02;;;;;;;5.49;100.00;101063.69;1635233;87;21619;-82
2021/05/09 03:19:19;;;;;;;4.30;2.20;;;;;;;5.65;100.00;101065.05;1635169;87;21584;-82
2021/05/09 03:21:45;;;;;;;3.02;1.90;;;;;;;5.75;100.00;101071.25;1635278;86;21271;-82
2021/05/09 03:24:12;;;;;;;3.65;1.60;;;;;;;5.78;100.00;101066.81;1622188;87;21698;-82
2021/05/09 03:26:39;;;;;;;3.72;1.82;;;;;;;6.01;100.00;101078.30;1652865;86;21139;-82
2021/05/09 03:29:06;;;;;;;4.40;1.85;;;;;;;6.19;100.00;101081.03;1635235;87;21115;-82
2021/05/09 03:31:33;;;;;;;4.53;1.70;;;;;;;6.51;100.00;101079.62;1635143;87;21587;-83
2021/05/09 03:33:59;;;;;;;11.48;1.70;;;;;;;6.87;100.00;101078.02;1635118;87;21240;-82
2021/05/09 03:36:25;;;;;;;5.10;1.47;;;;;;;6.72;100.00;101081.06;1635184;86;21099;-82
2021/05/09 03:38:50;;;;;;;6.37;1.65;;;;;;;6.91;100.00;101088.57;1635267;86;21138;-82
2021/05/09 03:41:17;;;;;;;3.20;1.77;;;;;;;6.98;100.00;101086.12;1635215;87;21672;-83
2021/05/09 03:43:44;;;;;;;4.85;1.77;;;;;;;7.22;100.00;101093.77;1645381;86;21584;-83
2021/05/09 03:46:10;;;;;;;3.37;1.70;;;;;;;7.27;100.00;101099.81;1642492;86;21211;-82
2021/05/09 03:48:36;;;;;;;3.22;1.57;;;;;;;7.35;100.00;101101.35;1650660;86;21278;-82
2021/05/09 03:51:03;;;;;;;3.27;1.70;;;;;;;7.47;100.00;101111.61;1640082;86;21059;-83
2021/05/09 03:53:30;;;;;;;3.52;1.52;;;;;;;7.47;100.00;101111.61;1638228;86;21659;-82
2021/05/09 03:55:58;;;;;;;2.77;1.35;;;;;;;7.81;100.00;101113.33;1635160;87;21619;-82
2021/05/09 03:58:24;;;;;;;5.50;1.60;;;;;;;7.76;100.00;101122.05;1575150;91;21456;-83
2021/05/09 04:00:50;;;;;;;4.12;1.80;;;;;;;7.67;100.00;101125.57;1581933;89;21250;-83
2021/05/09 04:03:30;;;;;;;3.72;1.70;;;;;;;7.43;100.00;101135.91;1578839;89;21234;-82
2021/05/09 04:05:56;;;;;;;4.08;1.70;;;;;;;7.73;100.00;101126.53;1593393;90;21800;-82
2021/05/09 04:08:25;;;;;;;4.85;1.60;;;;;;;7.48;100.00;101141.42;1584269;89;21222;-82
2021/05/09 04:10:53;;;;;;;2.47;1.72;;;;;;;7.27;100.00;101148.88;1570209;89;21275;-82
2021/05/09 04:13:20;;;;;;;4.50;2.17;;;;;;;7.26;100.00;101151.77;1566899;89;21603;-82
2021/05/09 04:15:48;;;;;;;5.00;1.87;;;;;;;7.10;100.00;101162.58;1602165;89;21198;-82
2021/05/09 04:18:14;;;;;;;3.80;1.62;;;;;;;6.92;100.00;101165.25;1624234;88;21193;-82
2021/05/09 04:20:41;;;;;;;2.95;1.70;;;;;;;6.98;100.00;101175.08;1621161;88;21590;-82
2021/05/09 04:23:18;;;;;;;3.17;1.62;;;;;;;6.95;100.00;101179.02;1621305;88;21220;-82
2021/05/09 04:25:51;;;;;;;3.15;1.70;;;;;;;7.87;100.00;101180.31;1621189;88;21236;-83
2021/05/09 04:28:18;;;;;;;2.77;1.57;;;;;;;9.22;100.00;101180.64;1621218;88;21276;-83
2021/05/09 04:30:45;;;;;;;2.27;1.40;;;;;;;11.10;100.00;101181.84;1621251;88;21252;-83
2021/05/09 04:33:11;;;;;;;4.30;1.72;;;;;;;11.86;100.00;101181.73;1621315;87;21274;-83
2021/05/09 04:35:43;;;;;;;3.20;1.65;;;;;;;14.03;100.00;101185.81;1621189;88;21247;-83
2021/05/09 04:38:10;;;;;;;2.22;1.42;;;;;;;14.03;100.00;101185.81;1621245;88;21221;-84
2021/05/09 04:40:37;;;;;;;2.47;1.60;;;;;;;15.42;90.73;101188.72;1621190;88;21228;-84
2021/05/09 04:43:08;;;;;;;4.90;1.47;;;;;;;14.51;63.92;101193.20;1593576;88;21204;-84
2021/05/09 04:45:35;;;;;;;2.10;1.30;;;;;;;15.59;86.16;101184.31;1621206;88;21650;-84
2021/05/09 04:48:05;;;;;;;3.22;1.25;;;;;;;16.05;62.95;101188.14;1621068;88;21209;-84
2021/05/09 04:50:32;;;;;;;3.30;1.30;;;;;;;16.85;77.22;101179.63;1621129;88;21213;-84
2021/05/09 04:52:58;;;;;;;2.60;1.50;;;;;;;17.66;71.91;101185.25;1621229;88;21278;-84
2021/05/09 04:55:24;;;;;;;3.77;1.80;;;;;;;17.58;52.39;101187.27;1621202;88;21268;-83
2021/05/09 04:57:50;;;;;;;2.83;1.60;;;;;;;18.21;63.41;101180.70;1621318;88;21290;-84
2021/05/09 05:00:17;;;;;;;3.08;1.60;;;;;;;19.01;49.51;101184.52;1621316;88;21600;-85
2021/05/09 05:02:47;;;;;;;5.72;1.37;;;;;;;18.67;53.54;101188.92;1621243;88;21479;-84
2021/05/09 05:05:15;;;;;;;3.35;1.62;;;;;;;18.89;46.91;101194.33;1621286;88;21614;-84
2021/05/09 05:07:41;;;;;;;3.00;1.47;;;;;;;18.87;50.51;101196.54;1621212;88;21146;-84
2021/05/09 05:10:07;;;;;;;5.42;1.60;;;;;;;18.75;49.23;101194.29;1621407;88;21196;-84
2021/05/09 05:12:34;;;;;;;4.37;1.62;;;;;;;19.38;51.01;101201.02;1621262;88;21408;-85
2021/05/09 05:15:00;;;;;;;2.90;1.87;;;;;;;18.67;43.60;101201.20;1641702;86;21183;-85
2021/05/09 05:17:26;;;;;;;4.55;1.90;;;;;;;20.36;47.92;101204.65;1656626;86;21219;-84
2021/05/09 05:19:52;;;;;;;3.17;1.52;;;;;;;20.37;44.14;101194.73;1655349;86;21010;-85
2021/05/09 05:22:18;;;;;;;4.22;1.62;;;;;;;22.04;44.18;101198.42;1654038;86;21041;-85
2021/05/09 05:24:44;;;;;;;4.08;1.50;;;;;;;21.65;43.71;101202.34;1654040;86;21176;-84
2021/05/09 05:27:09;;;;;;;1.50;1.40;;;;;;;21.74;39.63;101206.47;1653902;86;20981;-85
2021/05/09 05:29:35;;;;;;;1.60;1.50;;;;;;;20.17;38.55;101211.08;1653692;86;21021;-85
2021/05/09 05:32:01;;;;;;;1.82;1.27;;;;;;;21.09;37.16;101208.02;1650574;86;20951;-86
2021/05/09 05:34:30;;;;;;;2.22;1.65;;;;;;;19.93;40.40;101209.99;1653779;86;20985;-84
2021/05/09 05:36:56;;;;;;;7.83;1.70;;;;;;;21.63;39.39;101207.33;1653898;86;21775;-85
2021/05/09 05:39:22;;;;;;;1.87;1.70;;;;;;;22.11;36.66;101210.52;1653492;86;21697;-84
2021/05/09 05:41:47;;;;;;;6.85;1.90;;;;;;;23.21;36.03;101212.39;1653793;86;20973;-84
2021/05/09 05:44:14;;;;;;;1.80;1.55;;;;;;;20.99;34.61;101218.67;1653908;86;20997;-84
2021/05/09 05:46:39;;;;;;;4.55;1.55;;;;;;;21.78;35.54;101211.55;1654004;86;21603;-84
2021/05/09 05:49:07;;;;;;;1.95;1.47;;;;;;;23.37;34.03;101215.95;1654018;86;21242;-85
2021/05/09 05:51:33;;;;;;;2.83;1.62;;;;;;;22.63;31.22;101216.02;1608128;88;21263;-84
2021/05/09 05:54:00;;;;;;;3.27;2.05;;;;;;;20.17;35.00;101225.33;1608200;88;21191;-84
2021/05/09 05:56:26;;;;;;;6.08;1.50;;;;;;;20.08;37.58;101223.88;1608026;88;21708;-84
2021/05/09 05:58:52;;;;;;;4.50;1.50;;;;;;;21.94;35.61;101216.00;1608031;88;21196;-84
2021/05/09 06:01:19;;;;;;;1.50;1.25;;;;;;;21.75;32.18;101212.99;1586998;88;21686;-84
2021/05/09 06:03:45;;;;;;;6.10;1.52;;;;;;;21.77;33.95;101218.98;1608152;88;21105;-85
2021/05/09 06:06:11;;;;;;;3.17;1.32;;;;;;;22.04;31.01;101229.42;1608168;88;21277;-84
2021/05/09 06:08:39;;;;;;;3.67;1.45;;;;;;;22.46;31.65;101222.90;1608266;88;21259;-84
2021/05/09 06:11:05;;;;;;;2.70;1.92;;;;;;;23.69;32.74;101217.23;1608245;88;21248;-84
2021/05/09 06:13:31;;;;;;;1.30;1.20;;;;;;;22.36;31.54;101217.19;1607203;88;21256;-84
2021/05/09 06:15:57;;;;;;;1.98;1.42;;;;;;;23.19;33.29;101211.91;1581149;89;21622;-85
2021/05/09 06:18:23;;;;;;;1.30;1.20;;;;;;;23.12;31.42;101224.00;1579435;89;21052;-83
2021/05/09 06:20:50;;;;;;;2.05;1.40;;;;;;;24.10;29.92;101224.75;1558995;89;21183;-83
2021/05/09 06:23:24;;;;;;;2.22;1.05;;;;;;;22.11;30.64;101223.45;1579586;89;21600;-83
2021/05/09 06:25:50;;;;;;;3.02;1.27;;;;;;;22.71;30.02;101235.54;1579467;89;21226;-83
2021/05/09 06:28:16;;;;;;;1.67;1.25;;;;;;;19.27;32.18;101231.30;1579411;89;21788;-83
2021/05/09 06:30:43;;;;;;;1.25;1.15;;;;;;;21.43;32.59;101247.11;1579395;89;21020;-83
2021/05/09 06:33:10;;;;;;;3.08;1.40;;;;;;;22.79;29.82;101241.02;1579494;89;21204;-84
2021/05/09 06:35:38;;;;;;;3.67;1.32;;;;;;;23.32;31.10;101248.57;1579317;89;21588;-83
2021/05/09 06:38:07;;;;;;;1.45;1.30;;;;;;;22.61;28.35;101249.06;1579448;89;21258;-83
2021/05/09 06:40:34;;;;;;;3.45;1.30;;;;;;;24.76;29.50;101251.56;1579446;89;21183;-84
2021/05/09 06:43:02;;;;;;;3.27;1.50;;;;;;;23.45;28.32;101261.31;1579516;89;21670;-83
2021/05/09 06:45:31;;;;;;;3.35;1.32;;;;;;;22.83;29.09;101261.23;1579367;89;21231;-83
2021/05/09 06:47:59;;;;;;;2.65;1.20;;;;;;;23.19;29.02;101266.91;1597033;87;21262;-83
2021/05/09 06:50:28;;;;;;;2.75;1.40;;;;;;;23.99;27.81;101275.27;1637621;87;21244;-83
2021/05/09 06:52:54;;;;;;;2.15;1.47;;;;;;;24.80;28.19;101269.62;1637581;87;21697;-84
2021/05/09 06:55:20;;;;;;;4.78;1.00;;;;;;;25.74;26.71;101262.75;1637572;87;21158;-83
2021/05/09 06:57:47;;;;;;;3.70;1.40;;;;;;;24.84;29.76;101274.69;1644475;86;21630;-83
2021/05/09 07:00:15;;;;;;;2.47;1.42;;;;;;;23.91;27.14;101278.88;1609646;89;21179;-84
2021/05/09 07:02:42;;;;;;;39.83;4.75;;;;;;;24.03;26.05;101268.52;1642468;87;21853;-84
2021/05/09 07:05:08;;;;;;;12.25;2.10;;;;;;;25.60;27.71;101271.37;1669106;84;21222;-84
2021/05/09 07:07:54;;;;;;;15.60;2.27;;;;;;;23.93;26.08;101277.98;1668063;84;21170;-85
2021/05/09 07:10:23;;;;;;;1.92;1.35;;;;;;;23.08;26.69;101265.08;1619282;88;21193;-84
2021/05/09 07:12:49;;;;;;;4.00;1.27;;;;;;;24.40;27.39;101267.36;1619665;88;21691;-84
2021/05/09 07:15:24;;;;;;;2.17;1.30;;;;;;;22.50;27.35;101284.31;1613535;87;21240;-83
2021/05/09 07:18:05;;;;;;;1.22;1.10;;;;;;;22.63;28.00;101262.72;1609255;89;21224;-83
2021/05/09 07:20:31;;;;;;;1.20;1.07;;;;;;;22.51;27.07;101271.39;1576821;90;21261;-83
2021/05/09 07:22:58;;;;;;;3.92;1.60;;;;;;;23.75;28.39;101264.09;1578015;90;21329;-83
2021/05/09 07:25:25;;;;;;;1.25;1.10;;;;;;;25.10;26.99;101273.03;1576976;90;21235;-82
2021/05/09 07:27:51;;;;;;;3.40;1.30;;;;;;;23.45;27.43;101270.94;1576779;91;21410;-83
2021/05/09 07:30:23;;;;;;;1.52;1.37;;;;;;;24.33;26.79;101258.27;1577334;90;21123;-82
2021/05/09 07:32:50;;;;;;;2.10;1.32;;;;;;;23.93;24.92;101266.97;1576267;90;21679;-82
2021/05/09 07:35:16;;;;;;;1.30;1.00;;;;;;;21.61;29.42;101275.41;1579451;90;21124;-82
2021/05/09 07:37:42;;;;;;;8.20;1.22;;;;;;;22.98;26.59;101264.64;1579155;90;20981;-81
2021/05/09 07:40:09;;;;;;;6.17;1.30;;;;;;;22.94;24.50;101261.68;1579283;90;21279;-81
2021/05/09 07:42:35;;;;;;;2.22;1.45;;;;;;;23.53;23.30;101260.47;1578977;90;21224;-81
2021/05/09 07:45:01;;;;;;;4.35;1.17;;;;;;;25.75;23.29;101253.88;1579012;90;21540;-81
2021/05/09 07:47:27;;;;;;;4.83;1.20;;;;;;;23.68;24.81;101266.52;1579296;90;20982;-82
2021/05/09 07:49:53;;;;;;;1.20;1.10;;;;;;;24.55;24.12;101262.62;1579316;90;21708;-82
2021/05/09 07:52:19;;;;;;;1.85;0.95;;;;;;;24.98;23.23;101239.91;1579301;90;21449;-82
2021/05/09 07:54:45;;;;;;;17.48;1.47;;;;;;;23.60;24.05;101273.70;1579549;90;21244;-81
2021/05/09 07:57:10;;;;;;;1.20;1.10;;;;;;;23.73;23.81;101265.80;1579585;90;21156;-81
2021/05/09 07:59:37;;;;;;;2.75;1.00;;;;;;;24.61;25.31;101259.09;1579578;90;20973;-82
2021/05/09 08:02:03;;;;;;;4.83;1.62;;;;;;;23.76;24.59;101261.57;1579726;90;21219;-82
2021/05/09 08:04:29;;;;;;;6.92;1.10;;;;;;;25.28;23.56;101276.42;1579309;90;21310;-83
2021/05/09 08:06:55;;;;;;;1.20;0.98;;;;;;;25.65;23.81;101265.38;1587329;89;21071;-82
2021/05/09 08:09:21;;;;;;;1.10;1.00;;;;;;;24.50;22.18;101275.80;1601671;89;21683;-82
2021/05/09 08:11:47;;;;;;;1.12;1.00;;;;;;;24.82;23.06;101270.87;1601485;88;21222;-81
2021/05/09 08:14:13;;;;;;;3.70;1.30;;;;;;;24.84;22.83;101265.84;1601107;88;21004;-83
2021/05/09 08:16:38;;;;;;;2.27;1.07;;;;;;;24.10;23.73;101259.17;1604423;88;22075;-82
2021/05/09 08:19:04;;;;;;;1.40;1.00;;;;;;;22.99;24.18;101273.91;1621459;88;21093;-82
2021/05/09 08:21:30;;;;;;;1.87;1.27;;;;;;;24.66;24.95;101280.37;1622188;88;21001;-82
2021/05/09 08:23:56;;;;;;;1.25;1.07;;;;;;;24.06;25.01;101270.63;1623800;88;21076;-82
2021/05/09 08:26:22;;;;;;;3.35;1.10;;;;;;;23.02;24.91;101271.89;1602214;88;21040;-81
2021/05/09 08:28:50;;;;;;;7.30;1.57;;;;;;;22.49;25.68;101288.75;1623916;87;21914;-82
2021/05/09 08:31:19;;;;;;;6.20;1.45;;;;;;;22.32;24.95;101292.29;1625506;87;21211;-82
2021/05/09 08:33:45;;;;;;;1.00;0.90;;;;;;;22.99;23.90;101271.73;1635353;87;21059;-82
2021/05/09 08:36:11;;;;;;;1.07;0.98;;;;;;;23.24;25.13;101301.12;1635231;87;21599;-81
2021/05/09 08:38:37;;;;;;;2.98;1.07;;;;;;;23.47;24.87;101292.60;1635365;87;20992;-82
2021/05/09 08:41:02;;;;;;;4.47;1.17;;;;;;;24.05;23.29;101286.90;1635022;87;21229;-82
2021/05/09 08:43:28;;;;;;;1.92;1.00;;;;;;;23.87;23.88;101284.83;1635163;87;21010;-82
2021/05/09 08:45:58;;;;;;;5.55;1.20;;;;;;;23.50;24.76;101279.02;1643724;86;21104;-82
2021/05/09 08:48:26;;;;;;;2.45;0.90;;;;;;;24.55;23.46;101290.19;1639992;86;21545;-82
2021/05/09 08:50:52;;;;;;;3.83;1.00;;;;;;;24.96;22.52;101290.46;1635243;87;21158;-82
2021/05/09 08:53:20;;;;;;;3.72;0.78;;;;;;;22.84;24.69;101299.15;1635275;87;21190;-82
2021/05/09 08:55:46;;;;;;;2.02;1.10;;;;;;;23.70;24.23;101320.12;1635013;86;21095;-82
2021/05/09 08:58:12;;;;;;;3.50;0.95;;;;;;;23.85;24.34;101317.38;1636585;86;21652;-82
2021/05/09 09:00:39;;;;;;;1.05;0.95;;;;;;;25.57;23.76;101318.19;1647607;86;20985;-81
2021/05/09 09:03:05;;;;;;;1.40;1.00;;;;;;;23.66;23.97;101319.73;1635888;86;21126;-82
2021/05/09 09:05:46;;;;;;;6.12;0.98;;;;;;;23.63;23.15;101321.20;1631895;87;21230;-81
2021/05/09 09:08:15;;;;;;;3.77;1.42;;;;;;;24.29;23.92;101323.42;1635110;87;21158;-82
2021/05/09 09:10:47;;;;;;;1.55;0.88;;;;;;;24.09;24.68;101324.20;1635134;87;21151;-81
2021/05/09 09:13:32;;;;;;;2.05;0.75;;;;;;;21.65;24.99;101334.02;1635337;87;21087;-81
2021/05/09 09:16:04;;;;;;;4.50;0.93;;;;;;;21.66;25.62;101344.42;1619875;87;21148;-81
2021/05/09 09:18:34;;;;;;;3.00;1.07;;;;;;;19.99;28.25;101345.32;1633286;87;22011;-82
2021/05/09 09:21:26;;;;;;;2.67;1.35;;;;;;;20.86;26.26;101350.53;1633309;87;21595;-82
2021/05/09 09:24:06;;;;;;;2.75;0.90;;;;;;;19.18;29.29;101354.72;1589494;89;21237;-82
2021/05/09 09:26:49;;;;;;;1.95;0.80;;;;;;;18.96;30.25;101352.59;1579448;89;21553;-80
2021/05/09 09:29:28;;;;;;;1.47;1.00;;;;;;;19.14;29.69;101350.94;1589701;89;21441;-81
2021/05/09 09:32:01;;;;;;;2.60;0.72;;;;;;;19.73;28.11;101345.81;1589628;90;21252;-82
2021/05/09 09:34:41;;;;;;;3.12;0.85;;;;;;;19.44;28.70;101345.52;1589727;90;21257;-81
2021/05/09 09:37:10;;;;;;;2.72;1.07;;;;;;;20.31;29.06;101348.48;1589810;90;21287;-81
2021/05/09 09:39:53;;;;;;;2.95;1.10;;;;;;;20.84;29.26;101351.39;1589637;89;21221;-81
2021/05/09 09:42:44;;;;;;;2.72;0.72;;;;;;;20.79;27.70;101361.09;1587807;89;21181;-80
2021/05/09 09:45:23;;;;;;;1.67;0.90;;;;;;;21.02;26.34;101357.81;1589878;89;21314;-81
2021/05/09 09:47:56;;;;;;;1.55;1.02;;;;;;;20.19;27.76;101368.16;1567893;90;21267;-80
2021/05/09 09:50:46;;;;;;;3.47;1.00;;;;;;;17.57;30.33;101373.16;1589613;89;21169;-81
2021/05/09 09:53:32;;;;;;;1.90;0.80;;;;;;;18.25;30.35;101383.06;1572286;91;21239;-80
2021/05/09 09:56:22;;;;;;;2.30;1.20;;;;;;;18.39;31.79;101382.61;1572397;91;21213;-81
2021/05/09 09:58:58;;;;;;;2.83;1.05;;;;;;;18.01;32.23;101365.91;1572361;91;21225;-80
2021/05/09 10:01:37;;;;;;;5.25;0.95;;;;;;;18.29;29.91;101386.82;1596197;88;21254;-81
2021/05/09 10:04:07;;;;;;;3.62;0.82;;;;;;;17.88;30.87;101380.51;1588910;88;21255;-81
2021/05/09 10:06:39;;;;;;;4.97;1.55;;;;;;;17.86;30.80;101368.27;1581708;89;21202;-81
2021/05/09 10:09:06;;;;;;;2.55;1.00;;;;;;;17.46;32.26;101378.44;1581959;89;21088;-80
2021/05/09 10:11:33;;;;;;;0.75;0.70;;;;;;;17.30;31.15;101394.67;1581844;90;21230;-81
2021/05/09 10:14:00;;;;;;;1.90;0.90;;;;;;;17.02;32.50;101401.94;1581725;89;21271;-81
2021/05/09 10:16:39;;;;;;;1.50;1.05;;;;;;;17.69;30.98;101394.58;1593975;89;21452;-81
2021/05/09 10:19:19;;;;;;;3.05;0.98;;;;;;;17.31;31.27;101406.63;1556276;91;21293;-81
2021/05/09 10:21:45;;;;;;;1.52;1.05;;;;;;;17.36;32.02;101397.61;1555175;91;21198;-80
2021/05/09 10:24:21;;;;;;;4.22;1.17;;;;;;;17.91;31.81;101409.92;1555138;91;21274;-81
2021/05/09 10:27:11;;;;;;;4.35;1.02;;;;;;;17.83;31.60;101409.75;1555133;91;21214;-81
2021/05/09 10:29:43;;;;;;;1.62;0.85;;;;;;;16.86;33.42;101410.52;1555198;91;21194;-82
2021/05/09 10:32:24;;;;;;;2.25;0.90;;;;;;;17.97;33.14;101397.05;1555267;91;21500;-81
2021/05/09 10:34:58;;;;;;;4.03;0.90;;;;;;;17.68;32.44;101403.30;1554307;91;21126;-81
2021/05/09 10:37:42;;;;;;;2.17;1.05;;;;;;;17.09;34.48;101396.19;1555199;91;21282;-80
2021/05/09 10:40:36;;;;;;;7.50;1.02;;;;;;;17.83;33.55;101405.66;1555312;91;21274;-81
2021/05/09 10:43:08;;;;;;;1.30;0.90;;;;;;;17.60;33.73;101388.12;1555257;91;21254;-81
2021/05/09 10:45:39;;;;;;;1.87;0.90;;;;;;;17.86;32.86;101407.80;1561576;90;21206;-81
2021/05/09 10:48:25;;;;;;;0.95;0.82;;;;;;;18.74;31.99;101394.19;1566059;90;21126;-81
2021/05/09 10:51:14;;;;;;;1.20;0.90;;;;;;;18.70;31.43;101414.14;1565852;90;21138;-81
2021/05/09 10:53:42;;;;;;;1.17;1.00;;;;;;;18.52;30.04;101399.37;1565767;90;21261;-80
2021/05/09 10:56:15;;;;;;;7.58;0.90;;;;;;;18.95;29.73;101399.34;1565762;90;21219;-81
2021/05/09 10:58:51;;;;;;;1.85;0.85;;;;;;;19.05;29.09;101399.18;1565865;90;21118;-81
2021/05/09 11:01:33;;;;;;;1.02;0.72;;;;;;;18.41;30.33;101425.97;1565730;90;21197;-81
2021/05/09 11:04:08;;;;;;;1.52;0.85;;;;;;;17.63;30.71;101416.17;1565742;90;21222;-81
2021/05/09 11:06:38;;;;;;;2.92;0.75;;;;;;;17.65;31.50;101422.97;1528696;93;21225;-81
2021/05/09 11:09:12;;;;;;;1.12;0.80;;;;;;;17.20;32.53;101415.97;1562497;86;21326;-81
2021/05/09 11:11:43;;;;;;;2.30;0.88;;;;;;;17.63;31.44;101412.08;1640091;86;21194;-81
2021/05/09 11:14:15;;;;;;;3.75;0.88;;;;;;;17.18;32.26;101428.53;1640135;86;21213;-81
2021/05/09 11:16:44;;;;;;;3.20;1.40;;;;;;;17.05;33.15;101430.52;1583915;89;21226;-82
2021/05/09 11:19:20;;;;;;;3.12;0.82;;;;;;;17.35;32.79;101425.38;1583892;89;21185;-81
2021/05/09 11:21:55;;;;;;;2.85;1.00;;;;;;;17.59;32.15;101426.00;1579153;89;21253;-81
2021/05/09 11:24:25;;;;;;;1.72;1.10;;;;;;;17.27;31.39;101424.66;1575361;89;21244;-81
2021/05/09 11:26:57;;;;;;;1.30;1.20;;;;;;;17.58;31.87;101419.74;1575528;89;21190;-82
2021/05/09 11:29:27;;;;;;;1.27;0.80;;;;;;;18.13;31.52;101420.31;1552312;89;21182;-82
2021/05/09 11:32:06;;;;;;;1.85;0.93;;;;;;;18.86;29.26;101418.88;1575533;89;21257;-82